Time;durP1;ratioP1;P1;durP2;ratioP2;P2;SDS_P1;SDS_P2;PMS_P1;PMS_P2;Temp;Humidity;BMP_temperature;BMP_pressure;BME280_temperature;BME280_humidity;BME280_pressure;Samples;Min_cycle;Max_cycle;Signal;HPM_P1;HPM_P2
2021/06/14 00:00:26;;;;;;;9.52;4.53;;;10.00;99.90;;;;;;5053186;28;20021;-73
2021/06/14 00:02:52;;;;;;;7.32;4.15;;;9.90;99.90;;;;;;5053311;28;20036;-73
2021/06/14 00:05:30;;;;;;;8.27;4.18;;;9.90;99.90;;;;;;5053289;28;20398;-73
2021/06/14 00:07:57;;;;;;;7.68;4.65;;;9.90;99.90;;;;;;5040933;28;20033;-73
2021/06/14 00:10:25;;;;;;;7.55;4.38;;;9.90;99.90;;;;;;5034837;28;20087;-73
2021/06/14 00:12:51;;;;;;;12.48;5.05;;;9.80;99.90;;;;;;5051745;28;20021;-73
2021/06/14 00:15:18;;;;;;;11.90;4.80;;;9.70;99.90;;;;;;5051767;28;20052;-73
2021/06/14 00:17:43;;;;;;;8.25;4.70;;;9.70;99.90;;;;;;5051970;28;20026;-73
2021/06/14 00:20:12;;;;;;;11.52;4.57;;;9.70;99.90;;;;;;5052986;28;20107;-73
2021/06/14 00:22:42;;;;;;;8.60;4.47;;;9.70;99.90;;;;;;5051480;28;20028;-73
2021/06/14 00:25:10;;;;;;;11.13;5.82;;;9.70;99.90;;;;;;5035121;28;20036;-73
2021/06/14 00:27:36;;;;;;;8.13;5.10;;;9.60;99.90;;;;;;5047904;28;20090;-73
2021/06/14 00:30:04;;;;;;;8.07;4.43;;;9.60;99.90;;;;;;5052594;28;20103;-73
2021/06/14 00:32:29;;;;;;;9.00;5.63;;;9.60;99.90;;;;;;5052895;28;20029;-73
2021/06/14 00:34:55;;;;;;;10.32;5.30;;;9.50;99.90;;;;;;5052285;28;20044;-73
2021/06/14 00:37:21;;;;;;;12.43;5.45;;;9.50;99.90;;;;;;5052446;28;20514;-73
2021/06/14 00:39:46;;;;;;;8.38;5.35;;;9.50;99.90;;;;;;5052843;28;20414;-74
2021/06/14 00:42:12;;;;;;;8.73;4.97;;;9.40;99.90;;;;;;5051281;28;20395;-73
2021/06/14 00:44:38;;;;;;;11.82;4.95;;;9.50;99.90;;;;;;5052658;28;20032;-73
2021/06/14 00:47:04;;;;;;;8.88;5.40;;;9.50;99.90;;;;;;5052709;28;20033;-73
2021/06/14 00:49:30;;;;;;;7.55;4.93;;;9.40;99.90;;;;;;5051527;28;20037;-73
2021/06/14 00:51:55;;;;;;;9.45;4.90;;;9.40;99.90;;;;;;5052715;28;20450;-73
2021/06/14 00:54:21;;;;;;;10.77;5.20;;;9.40;99.90;;;;;;5044659;28;20356;-73
2021/06/14 00:56:47;;;;;;;16.30;5.65;;;9.40;99.90;;;;;;5037736;28;20032;-73
2021/06/14 00:59:14;;;;;;;10.45;5.90;;;9.30;99.90;;;;;;5052550;28;20029;-73
2021/06/14 01:01:40;;;;;;;10.32;5.53;;;9.30;99.90;;;;;;5052431;28;20060;-73
2021/06/14 01:04:06;;;;;;;17.38;6.70;;;9.30;99.90;;;;;;5052498;28;20029;-73
2021/06/14 01:06:31;;;;;;;8.13;6.00;;;9.30;99.90;;;;;;5052672;28;20397;-73
2021/06/14 01:08:57;;;;;;;10.85;6.93;;;9.30;99.90;;;;;;5051067;28;20060;-73
2021/06/14 01:11:57;;;;;;;10.63;6.32;;;9.30;99.90;;;;;;5052467;28;20025;-73
2021/06/14 01:14:22;;;;;;;10.93;5.18;;;9.30;99.90;;;;;;5052490;28;20032;-73
2021/06/14 01:17:17;;;;;;;15.00;5.50;;;9.30;99.90;;;;;;5051998;28;20382;-73
2021/06/14 01:20:06;;;;;;;10.20;6.32;;;9.30;99.90;;;;;;5052603;28;20544;-73
2021/06/14 01:23:12;;;;;;;8.65;5.55;;;9.30;99.90;;;;;;5052838;28;20112;-74
2021/06/14 01:25:40;;;;;;;16.48;7.25;;;9.30;99.90;;;;;;5052219;28;20159;-73
2021/06/14 01:28:08;;;;;;;8.02;6.03;;;9.30;99.90;;;;;;5051965;28;20462;-73
2021/06/14 01:30:37;;;;;;;12.73;7.22;;;9.30;99.90;;;;;;5052366;28;20082;-73
2021/06/14 01:33:06;;;;;;;10.38;7.15;;;9.30;99.90;;;;;;5032390;28;20087;-73
2021/06/14 01:35:37;;;;;;;14.23;7.00;;;9.30;99.90;;;;;;5031077;28;20029;-73
2021/06/14 01:38:05;;;;;;;13.05;7.38;;;9.20;99.90;;;;;;5032362;28;20129;-73
2021/06/14 01:40:32;;;;;;;14.93;7.40;;;9.20;99.90;;;;;;5039478;28;20025;-73
2021/06/14 01:43:01;;;;;;;13.10;6.82;;;9.20;99.90;;;;;;5051730;28;20112;-73
2021/06/14 01:45:29;;;;;;;15.95;6.78;;;9.20;99.90;;;;;;5051159;28;20127;-73
2021/06/14 01:47:57;;;;;;;11.70;6.90;;;9.20;99.90;;;;;;5054549;28;20021;-73
2021/06/14 01:50:27;;;;;;;10.70;6.28;;;9.10;99.90;;;;;;5055713;28;20025;-73
2021/06/14 01:52:54;;;;;;;13.52;6.65;;;9.10;99.90;;;;;;5055793;28;20082;-73
2021/06/14 01:55:20;;;;;;;12.48;6.65;;;9.10;99.90;;;;;;5054459;28;20043;-73
2021/06/14 01:57:47;;;;;;;17.92;6.60;;;9.10;99.90;;;;;;5055593;28;20032;-73
2021/06/14 02:00:14;;;;;;;8.30;5.53;;;9.10;99.90;;;;;;5055614;28;20033;-73
2021/06/14 02:02:43;;;;;;;11.77;5.88;;;9.10;99.90;;;;;;5055552;28;20021;-73
2021/06/14 02:05:09;;;;;;;10.75;6.25;;;9.00;99.90;;;;;;5054196;28;20040;-74
2021/06/14 02:07:35;;;;;;;12.80;7.28;;;9.00;99.90;;;;;;5054403;28;20451;-74
2021/06/14 02:10:03;;;;;;;13.18;6.60;;;9.00;99.90;;;;;;5054620;28;20021;-73
2021/06/14 02:12:29;;;;;;;10.77;6.97;;;9.00;99.90;;;;;;5043654;28;20447;-73
2021/06/14 02:14:55;;;;;;;15.70;6.50;;;9.00;99.90;;;;;;5034700;28;20483;-73
2021/06/14 02:17:24;;;;;;;10.77;5.85;;;9.00;99.90;;;;;;5034935;28;20094;-73
2021/06/14 02:19:50;;;;;;;17.42;7.85;;;9.00;99.90;;;;;;5034712;28;20053;-73
2021/06/14 02:22:18;;;;;;;14.57;7.60;;;9.00;99.90;;;;;;5033151;28;20060;-73
2021/06/14 02:24:44;;;;;;;11.85;7.30;;;9.00;99.90;;;;;;5042512;28;20029;-73
2021/06/14 02:27:12;;;;;;;13.98;7.32;;;8.90;99.90;;;;;;5054290;28;20032;-73
2021/06/14 02:29:38;;;;;;;13.98;6.95;;;8.90;99.90;;;;;;5054469;28;20025;-73
2021/06/14 02:32:05;;;;;;;15.02;7.90;;;8.90;99.90;;;;;;5052180;28;20080;-73
2021/06/14 02:34:32;;;;;;;10.45;6.75;;;8.80;99.90;;;;;;5054282;28;20508;-73
2021/06/14 02:36:59;;;;;;;14.05;7.85;;;8.90;99.90;;;;;;5052924;28;20017;-73
2021/06/14 02:39:27;;;;;;;10.43;6.85;;;8.90;99.90;;;;;;5054231;28;20025;-73
2021/06/14 02:41:53;;;;;;;15.43;8.27;;;8.80;99.90;;;;;;5048148;28;20056;-73
2021/06/14 02:44:22;;;;;;;12.43;6.38;;;8.80;99.90;;;;;;5046807;28;20060;-73
2021/06/14 02:46:49;;;;;;;9.30;6.93;;;8.70;99.90;;;;;;5054424;28;20092;-73
2021/06/14 02:49:16;;;;;;;10.77;5.85;;;8.80;99.90;;;;;;5054768;28;20028;-74
2021/06/14 02:51:44;;;;;;;12.93;6.50;;;8.70;99.90;;;;;;5054782;28;20021;-73
2021/06/14 02:54:26;;;;;;;10.65;6.50;;;8.80;99.90;;;;;;5054571;28;20025;-73
2021/06/14 02:56:57;;;;;;;13.95;6.28;;;8.80;99.90;;;;;;5052319;28;20183;-74
2021/06/14 02:59:25;;;;;;;15.90;5.93;;;8.70;99.90;;;;;;5053812;28;20032;-73
2021/06/14 03:01:52;;;;;;;10.88;6.03;;;8.70;99.90;;;;;;5054550;28;20032;-73
2021/06/14 03:04:17;;;;;;;13.73;6.22;;;8.70;99.90;;;;;;5053141;28;20112;-73
2021/06/14 03:06:45;;;;;;;11.93;6.47;;;8.70;99.90;;;;;;5054540;28;20121;-73
2021/06/14 03:09:11;;;;;;;9.93;5.95;;;8.80;99.90;;;;;;5054321;28;20457;-73
2021/06/14 03:11:40;;;;;;;12.40;5.68;;;8.80;99.90;;;;;;5053916;28;20036;-73
2021/06/14 03:14:06;;;;;;;12.65;6.57;;;8.80;99.90;;;;;;5052823;28;20074;-73
2021/06/14 03:16:32;;;;;;;9.65;5.50;;;8.90;99.90;;;;;;5054201;28;20553;-73
2021/06/14 03:18:59;;;;;;;9.18;6.55;;;8.90;99.90;;;;;;5054103;28;20091;-73
2021/06/14 03:21:33;;;;;;;13.25;5.30;;;9.00;99.90;;;;;;5053981;28;20482;-74
2021/06/14 03:23:59;;;;;;;10.48;5.38;;;9.10;99.90;;;;;;5054061;28;20017;-74
2021/06/14 03:26:28;;;;;;;14.60;5.50;;;9.20;99.90;;;;;;5053847;28;20378;-74
2021/06/14 03:28:56;;;;;;;9.05;5.20;;;9.30;99.90;;;;;;5035945;28;20053;-74
2021/06/14 03:31:23;;;;;;;9.82;4.53;;;9.50;99.90;;;;;;5036618;28;20036;-74
2021/06/14 03:33:50;;;;;;;11.38;4.93;;;9.60;99.90;;;;;;5053763;28;20022;-74
2021/06/14 03:36:19;;;;;;;11.85;5.03;;;9.70;99.90;;;;;;5052535;28;20085;-74
2021/06/14 03:38:46;;;;;;;9.30;5.25;;;9.70;99.90;;;;;;5053891;28;20017;-74
2021/06/14 03:41:13;;;;;;;8.50;4.93;;;9.80;99.90;;;;;;5053781;28;20067;-74
2021/06/14 03:43:39;;;;;;;9.10;4.20;;;10.10;99.90;;;;;;5049574;28;20110;-73
2021/06/14 03:46:04;;;;;;;10.30;4.18;;;10.30;99.90;;;;;;5034169;28;20065;-73
2021/06/14 03:48:30;;;;;;;12.13;4.40;;;10.40;99.90;;;;;;5051964;28;20029;-72
2021/06/14 03:50:56;;;;;;;7.78;4.32;;;10.50;99.90;;;;;;5053564;28;20036;-73
2021/06/14 03:53:31;;;;;;;6.32;3.72;;;10.70;99.90;;;;;;5034178;28;20029;-73
2021/06/14 03:56:05;;;;;;;10.65;4.70;;;10.70;99.90;;;;;;5033515;28;20076;-73
2021/06/14 03:58:31;;;;;;;7.30;3.78;;;10.80;99.90;;;;;;5047551;28;20021;-73
2021/06/14 04:00:59;;;;;;;6.90;3.53;;;11.00;99.90;;;;;;5053176;28;20029;-73
2021/06/14 04:03:27;;;;;;;9.93;4.03;;;11.10;99.90;;;;;;5053172;28;20017;-73
2021/06/14 04:05:55;;;;;;;8.88;4.55;;;11.10;99.90;;;;;;5033174;28;20036;-73
2021/06/14 04:08:21;;;;;;;11.50;3.50;;;11.40;99.90;;;;;;5033435;28;20079;-73
2021/06/14 04:10:47;;;;;;;7.07;3.80;;;11.50;98.90;;;;;;5031911;28;20036;-72
2021/06/14 04:13:12;;;;;;;10.90;4.70;;;11.70;96.90;;;;;;5048365;28;20029;-73
2021/06/14 04:15:38;;;;;;;8.85;4.30;;;11.80;95.30;;;;;;5053166;28;20037;-73
2021/06/14 04:18:04;;;;;;;7.90;4.35;;;11.60;97.30;;;;;;5051782;28;20475;-73
2021/06/14 04:20:30;;;;;;;11.02;4.43;;;11.70;96.70;;;;;;5038414;28;20028;-73
2021/06/14 04:22:56;;;;;;;8.77;4.65;;;11.70;97.70;;;;;;5031883;28;20049;-73
2021/06/14 04:25:22;;;;;;;10.55;4.95;;;11.80;96.80;;;;;;5031852;28;20037;-73
2021/06/14 04:27:47;;;;;;;12.02;5.15;;;11.80;96.80;;;;;;5039187;28;20490;-73
2021/06/14 04:30:14;;;;;;;12.60;5.10;;;12.00;95.00;;;;;;5052921;28;20079;-73
2021/06/14 04:32:40;;;;;;;11.73;5.22;;;12.00;95.70;;;;;;5052865;28;20501;-72
2021/06/14 04:35:06;;;;;;;10.55;4.72;;;11.90;95.10;;;;;;5042032;28;20120;-72
2021/06/14 04:37:33;;;;;;;8.85;5.20;;;12.00;96.00;;;;;;5032974;28;20030;-72
2021/06/14 04:39:59;;;;;;;8.80;4.38;;;11.90;97.30;;;;;;5032799;28;20079;-73
2021/06/14 04:42:27;;;;;;;10.95;5.00;;;11.90;97.10;;;;;;5031742;28;20087;-73
2021/06/14 04:44:53;;;;;;;11.80;5.07;;;11.80;98.90;;;;;;5032725;28;20465;-73
2021/06/14 04:47:20;;;;;;;8.43;4.38;;;12.00;97.20;;;;;;5033630;28;20022;-73
2021/06/14 04:49:46;;;;;;;6.47;4.25;;;12.10;95.10;;;;;;5052821;28;20036;-73
2021/06/14 04:52:12;;;;;;;11.38;4.47;;;12.10;96.40;;;;;;5052800;28;20557;-73
2021/06/14 04:54:37;;;;;;;9.20;4.50;;;12.20;95.80;;;;;;5052339;28;20115;-73
2021/06/14 04:57:03;;;;;;;8.13;4.13;;;12.30;94.80;;;;;;5052675;28;20021;-73
2021/06/14 04:59:29;;;;;;;8.32;3.90;;;12.50;94.40;;;;;;5038837;28;20029;-73
2021/06/14 05:01:55;;;;;;;8.13;4.47;;;12.40;93.10;;;;;;5034511;28;20073;-73
2021/06/14 05:04:20;;;;;;;10.38;4.50;;;12.60;93.20;;;;;;5039419;28;20295;-73
2021/06/14 05:06:46;;;;;;;9.40;4.32;;;12.60;93.10;;;;;;5039009;28;20104;-73
2021/06/14 05:09:12;;;;;;;8.55;3.95;;;12.70;90.40;;;;;;5031297;28;20390;-73
2021/06/14 05:11:38;;;;;;;7.13;3.90;;;12.80;91.50;;;;;;5042878;28;20021;-73
2021/06/14 05:14:04;;;;;;;14.20;4.47;;;12.70;92.30;;;;;;5052459;28;20025;-73
2021/06/14 05:16:29;;;;;;;7.25;3.63;;;12.70;89.60;;;;;;5050685;28;20509;-73
2021/06/14 05:18:55;;;;;;;7.75;3.47;;;12.80;90.40;;;;;;5052084;28;20055;-73
2021/06/14 05:21:21;;;;;;;7.40;3.47;;;12.90;89.80;;;;;;5052401;28;20021;-72
2021/06/14 05:23:46;;;;;;;9.85;4.32;;;12.90;88.50;;;;;;5056345;28;20029;-72
2021/06/14 05:26:12;;;;;;;10.30;4.43;;;12.90;89.30;;;;;;5056323;28;20021;-73
2021/06/14 05:28:37;;;;;;;9.70;4.38;;;13.00;87.80;;;;;;5049786;28;20052;-73
2021/06/14 05:31:04;;;;;;;7.47;3.70;;;12.90;89.40;;;;;;5037124;28;20057;-73
2021/06/14 05:33:30;;;;;;;5.05;3.33;;;12.90;87.50;;;;;;5055017;28;20483;-73
2021/06/14 05:35:56;;;;;;;5.38;3.20;;;13.00;87.70;;;;;;5055867;28;20037;-73
2021/06/14 05:38:21;;;;;;;7.20;3.70;;;13.00;88.00;;;;;;5056152;28;20036;-73
2021/06/14 05:40:47;;;;;;;10.15;3.58;;;13.10;87.20;;;;;;5054726;28;20376;-73
2021/06/14 05:43:13;;;;;;;6.13;3.45;;;13.00;87.00;;;;;;5055960;28;20477;-75
2021/06/14 05:45:39;;;;;;;9.13;3.50;;;13.10;87.20;;;;;;5056390;28;20481;-73
2021/06/14 05:48:05;;;;;;;6.80;3.45;;;13.20;86.70;;;;;;5054708;28;20021;-74
2021/06/14 05:50:31;;;;;;;6.65;3.50;;;13.30;86.50;;;;;;5053489;28;20033;-73
2021/06/14 05:52:57;;;;;;;4.88;2.83;;;13.40;83.10;;;;;;5053786;28;20642;-73
2021/06/14 05:55:23;;;;;;;6.68;2.55;;;13.60;82.50;;;;;;5052134;28;20037;-73
2021/06/14 05:57:48;;;;;;;8.80;3.08;;;13.60;80.80;;;;;;5053866;28;20103;-74
2021/06/14 06:00:14;;;;;;;5.65;3.13;;;13.60;81.10;;;;;;5036170;28;20029;-73
2021/06/14 06:02:40;;;;;;;7.93;2.92;;;13.60;81.00;;;;;;5043196;28;20474;-73
2021/06/14 06:05:07;;;;;;;6.22;2.80;;;13.70;80.10;;;;;;5034643;28;20025;-73
2021/06/14 06:07:34;;;;;;;5.15;2.65;;;13.80;78.40;;;;;;5047808;28;20025;-74
2021/06/14 06:09:59;;;;;;;4.20;3.33;;;13.90;78.90;;;;;;5054974;28;20111;-73
2021/06/14 06:12:25;;;;;;;6.43;2.70;;;14.10;77.00;;;;;;5054939;28;20573;-73
2021/06/14 06:14:50;;;;;;;5.18;2.88;;;14.10;77.50;;;;;;5053352;28;20033;-74
2021/06/14 06:17:16;;;;;;;9.32;3.00;;;14.10;77.10;;;;;;5054785;28;20066;-73
2021/06/14 06:19:42;;;;;;;7.25;2.80;;;14.10;74.80;;;;;;5048755;28;20033;-73
2021/06/14 06:22:08;;;;;;;8.05;3.13;;;14.20;75.10;;;;;;5053259;28;20033;-72
2021/06/14 06:24:33;;;;;;;7.50;3.20;;;14.20;76.30;;;;;;5043642;28;20032;-73
2021/06/14 06:27:00;;;;;;;8.68;3.22;;;14.30;76.60;;;;;;5033175;28;20017;-73
2021/06/14 06:29:26;;;;;;;8.43;2.80;;;14.40;74.90;;;;;;5048830;28;20505;-73
2021/06/14 06:31:52;;;;;;;7.82;2.63;;;14.50;73.30;;;;;;5052577;28;20431;-73
2021/06/14 06:34:18;;;;;;;4.40;2.33;;;14.60;74.30;;;;;;5033173;28;20025;-73
2021/06/14 06:36:44;;;;;;;7.85;2.40;;;14.70;70.60;;;;;;5034446;28;20076;-73
2021/06/14 06:39:09;;;;;;;7.28;2.78;;;14.70;70.40;;;;;;5040126;28;20497;-73
2021/06/14 06:41:35;;;;;;;6.88;3.22;;;14.80;68.70;;;;;;5054315;28;20032;-73
2021/06/14 06:44:01;;;;;;;7.43;3.85;;;14.90;69.80;;;;;;5052748;28;20064;-73
2021/06/14 06:46:27;;;;;;;5.82;2.72;;;15.10;70.70;;;;;;5054230;28;20025;-73
2021/06/14 06:48:53;;;;;;;5.85;2.15;;;15.00;68.60;;;;;;5054388;28;20393;-73
2021/06/14 06:51:18;;;;;;;9.35;2.50;;;15.20;67.00;;;;;;5054804;28;20036;-73
2021/06/14 06:53:44;;;;;;;5.30;2.33;;;15.20;65.50;;;;;;5054687;28;20393;-73
2021/06/14 06:56:10;;;;;;;6.60;2.70;;;15.30;66.20;;;;;;5054439;28;20037;-73
2021/06/14 06:58:35;;;;;;;4.40;1.85;;;15.60;66.60;;;;;;5047632;28;20482;-73
2021/06/14 07:01:01;;;;;;;6.18;2.60;;;15.70;64.40;;;;;;5034426;28;20030;-73
2021/06/14 07:03:27;;;;;;;4.22;2.13;;;16.00;64.80;;;;;;5047837;28;20040;-73
2021/06/14 07:05:53;;;;;;;6.15;2.00;;;16.00;64.30;;;;;;5052292;28;20009;-73
2021/06/14 07:08:19;;;;;;;4.43;1.70;;;16.10;61.00;;;;;;5053187;28;20039;-73
2021/06/14 07:10:45;;;;;;;5.55;2.13;;;16.00;60.20;;;;;;5054230;28;20025;-73
2021/06/14 07:13:12;;;;;;;4.55;2.10;;;16.10;60.30;;;;;;5054362;28;20036;-74
2021/06/14 07:15:38;;;;;;;5.32;2.40;;;16.10;61.20;;;;;;5052809;28;20061;-73
2021/06/14 07:18:04;;;;;;;5.70;2.40;;;16.30;60.50;;;;;;5052907;28;20109;-73
2021/06/14 07:20:30;;;;;;;5.35;2.33;;;16.40;59.90;;;;;;5052958;28;20025;-73
2021/06/14 07:22:56;;;;;;;5.00;2.13;;;16.30;59.70;;;;;;5052864;28;20052;-73
2021/06/14 07:25:22;;;;;;;4.38;2.00;;;16.30;59.60;;;;;;5053666;28;20478;-73
2021/06/14 07:27:48;;;;;;;3.60;1.67;;;16.50;58.80;;;;;;5054108;28;20021;-73
2021/06/14 07:30:15;;;;;;;4.20;1.90;;;16.50;59.30;;;;;;5052555;28;20033;-74
2021/06/14 07:32:42;;;;;;;4.43;2.10;;;16.40;58.10;;;;;;5052267;28;20055;-73
2021/06/14 07:35:09;;;;;;;4.50;1.88;;;16.40;59.10;;;;;;5053705;28;20517;-73
2021/06/14 07:37:35;;;;;;;5.20;1.92;;;16.50;58.80;;;;;;5052588;28;20432;-73
2021/06/14 07:40:00;;;;;;;3.08;1.85;;;16.50;58.20;;;;;;5053511;28;20056;-74
2021/06/14 07:42:26;;;;;;;4.90;2.75;;;16.60;58.00;;;;;;5053864;28;20465;-73
2021/06/14 07:44:52;;;;;;;6.63;1.77;;;16.50;58.20;;;;;;5052028;28;20040;-73
2021/06/14 07:47:18;;;;;;;8.98;1.80;;;16.50;58.00;;;;;;5053270;28;20056;-73
2021/06/14 07:49:43;;;;;;;5.53;1.63;;;16.60;58.40;;;;;;5052294;28;20024;-73
2021/06/14 07:52:09;;;;;;;4.40;1.92;;;16.60;57.60;;;;;;5053162;28;20021;-73
2021/06/14 07:54:35;;;;;;;4.00;2.00;;;16.80;58.00;;;;;;5035983;28;20032;-73
2021/06/14 07:57:02;;;;;;;3.70;2.10;;;17.20;58.20;;;;;;5053459;28;20029;-73
2021/06/14 07:59:27;;;;;;;3.85;1.98;;;17.50;58.00;;;;;;5053357;28;20029;-74
2021/06/14 08:01:53;;;;;;;3.35;1.85;;;17.40;56.50;;;;;;5052076;28;20021;-73
2021/06/14 08:04:18;;;;;;;3.97;2.20;;;17.60;55.80;;;;;;5053249;28;20030;-73
2021/06/14 08:06:44;;;;;;;3.13;1.70;;;17.60;55.30;;;;;;5053461;28;20025;-73
2021/06/14 08:09:13;;;;;;;4.47;2.28;;;17.50;56.50;;;;;;5053236;28;20025;-73
2021/06/14 08:11:43;;;;;;;6.88;2.15;;;17.80;56.50;;;;;;5053080;28;20063;-74
2021/06/14 08:14:09;;;;;;;6.13;2.05;;;18.00;55.90;;;;;;5051869;28;20029;-73
2021/06/14 08:16:40;;;;;;;2.47;1.77;;;18.10;55.60;;;;;;5053202;28;20112;-73
2021/06/14 08:19:11;;;;;;;4.50;1.98;;;18.30;54.20;;;;;;5053017;28;20078;-73
2021/06/14 08:21:46;;;;;;;4.40;1.77;;;18.40;53.60;;;;;;5052151;28;20067;-73
2021/06/14 08:26:56;;;;;;;4.47;2.08;;;18.80;54.10;;;;;;5053106;28;20056;-73
2021/06/14 08:29:22;;;;;;;3.05;1.27;;;18.30;53.90;;;;;;5051572;28;20675;-73
2021/06/14 08:31:47;;;;;;;4.28;2.05;;;17.70;54.40;;;;;;5051690;28;20063;-73
2021/06/14 08:34:13;;;;;;;4.50;1.60;;;17.50;55.70;;;;;;5051520;28;20055;-73
2021/06/14 08:36:40;;;;;;;3.58;1.67;;;17.40;54.70;;;;;;5052958;28;20108;-74
2021/06/14 08:39:10;;;;;;;3.53;1.55;;;17.40;53.60;;;;;;5051328;28;20021;-73
2021/06/14 08:41:37;;;;;;;4.03;1.90;;;17.20;55.10;;;;;;5045050;28;20029;-73
2021/06/14 08:44:03;;;;;;;4.40;1.60;;;17.40;53.50;;;;;;5052683;28;20033;-73
2021/06/14 08:46:29;;;;;;;4.15;1.98;;;17.70;51.90;;;;;;5052813;28;20044;-73
2021/06/14 08:48:55;;;;;;;4.22;1.80;;;18.00;53.40;;;;;;5052798;28;20033;-73
2021/06/14 08:51:21;;;;;;;3.03;1.63;;;18.30;53.00;;;;;;5051581;28;20509;-73
2021/06/14 08:53:53;;;;;;;2.22;1.50;;;17.90;52.70;;;;;;5052742;28;20048;-73
2021/06/14 08:56:20;;;;;;;2.10;1.77;;;18.00;53.40;;;;;;5052521;28;20048;-73
2021/06/14 08:58:48;;;;;;;2.35;1.65;;;18.00;52.50;;;;;;5056684;28;20040;-73
2021/06/14 09:01:14;;;;;;;3.60;1.48;;;18.30;50.70;;;;;;5055572;28;20028;-73
2021/06/14 09:03:39;;;;;;;4.88;1.80;;;18.10;50.20;;;;;;5056863;28;20398;-73
2021/06/14 09:06:05;;;;;;;1.90;1.60;;;18.40;50.80;;;;;;5056662;28;20029;-73
2021/06/14 09:08:31;;;;;;;2.42;1.20;;;18.20;49.50;;;;;;5056760;28;20025;-73
2021/06/14 09:10:57;;;;;;;1.30;1.20;;;18.40;49.40;;;;;;5055136;28;20033;-73
2021/06/14 09:13:28;;;;;;;1.83;1.17;;;18.50;48.60;;;;;;5056694;28;20025;-73
2021/06/14 09:16:04;;;;;;;3.70;1.50;;;18.70;48.30;;;;;;5056469;28;20041;-73
2021/06/14 09:18:30;;;;;;;2.38;1.27;;;19.00;48.20;;;;;;5056425;28;20027;-73
2021/06/14 09:21:07;;;;;;;3.63;1.52;;;19.30;49.50;;;;;;5056451;28;20021;-73
2021/06/14 09:23:46;;;;;;;2.10;1.70;;;19.40;47.90;;;;;;5055249;28;20028;-74
2021/06/14 09:26:25;;;;;;;4.85;1.27;;;19.60;48.50;;;;;;5056377;28;20024;-73
2021/06/14 09:28:57;;;;;;;4.18;1.38;;;19.30;47.30;;;;;;5055157;28;20048;-73
2021/06/14 09:31:26;;;;;;;5.28;1.23;;;19.30;46.00;;;;;;5056414;28;20024;-73
2021/06/14 09:33:52;;;;;;;2.45;1.10;;;19.20;46.90;;;;;;5056262;28;20029;-73
2021/06/14 09:36:20;;;;;;;2.53;1.30;;;19.50;46.40;;;;;;5054926;28;20028;-73
2021/06/14 09:38:46;;;;;;;3.67;1.38;;;19.50;46.80;;;;;;5056233;28;20021;-73
2021/06/14 09:41:16;;;;;;;2.58;1.60;;;19.60;46.90;;;;;;5055772;28;20040;-73
2021/06/14 09:43:45;;;;;;;3.08;1.42;;;19.20;46.60;;;;;;5056251;28;20029;-73
2021/06/14 09:46:28;;;;;;;1.65;1.52;;;19.10;48.30;;;;;;5054780;28;20033;-73
2021/06/14 09:48:57;;;;;;;2.90;1.33;;;18.90;47.60;;;;;;5049154;28;20024;-73
2021/06/14 09:51:23;;;;;;;4.43;1.35;;;18.90;47.60;;;;;;5055943;28;20044;-73
2021/06/14 09:53:51;;;;;;;3.97;1.00;;;18.80;45.80;;;;;;5055802;28;20029;-73
2021/06/14 09:56:26;;;;;;;1.73;1.10;;;18.60;45.20;;;;;;5055766;28;20182;-73
2021/06/14 09:58:57;;;;;;;5.55;1.55;;;18.50;45.50;;;;;;5052087;28;20100;-73
2021/06/14 10:01:32;;;;;;;1.33;0.85;;;18.90;46.20;;;;;;5034608;28;20033;-73
2021/06/14 10:04:04;;;;;;;1.40;1.30;;;19.00;46.00;;;;;;5047780;28;20017;-73
2021/06/14 10:06:39;;;;;;;1.98;1.10;;;19.00;44.90;;;;;;5055710;28;20421;-74
2021/06/14 10:09:13;;;;;;;1.80;0.80;;;19.20;44.80;;;;;;5053971;28;20107;-74
2021/06/14 10:11:40;;;;;;;1.48;0.82;;;19.60;43.40;;;;;;5055004;28;20052;-74
2021/06/14 10:14:21;;;;;;;1.10;1.00;;;19.70;42.90;;;;;;5054706;28;20564;-73
2021/06/14 10:16:50;;;;;;;1.20;0.93;;;19.80;42.70;;;;;;5034882;28;20120;-73
2021/06/14 10:19:17;;;;;;;3.33;1.42;;;19.40;43.20;;;;;;5050296;28;20028;-73
2021/06/14 10:21:50;;;;;;;1.13;1.02;;;19.50;44.10;;;;;;5054709;28;20033;-74
2021/06/14 10:24:18;;;;;;;4.60;1.20;;;19.70;44.40;;;;;;5054639;28;20112;-74
2021/06/14 10:26:47;;;;;;;2.15;1.00;;;19.80;44.40;;;;;;5053325;28;20028;-74
2021/06/14 10:29:15;;;;;;;1.55;1.10;;;19.80;43.90;;;;;;5052282;28;20470;-74
2021/06/14 10:31:43;;;;;;;4.40;1.10;;;20.00;44.10;;;;;;5037169;28;20150;-74
2021/06/14 10:34:10;;;;;;;4.50;1.92;;;20.10;43.70;;;;;;5054170;28;20458;-74
2021/06/14 10:36:37;;;;;;;3.22;1.40;;;20.30;44.50;;;;;;5054308;28;20033;-74
2021/06/14 10:39:03;;;;;;;1.88;1.10;;;20.20;44.50;;;;;;5054244;28;20040;-74
2021/06/14 10:41:29;;;;;;;2.67;1.20;;;20.00;44.10;;;;;;5053327;28;20039;-74
2021/06/14 10:43:55;;;;;;;2.35;1.00;;;19.70;43.90;;;;;;5054745;28;20478;-73
2021/06/14 10:46:26;;;;;;;2.95;1.38;;;20.00;43.80;;;;;;5054842;28;20497;-74
2021/06/14 10:48:58;;;;;;;3.30;1.25;;;19.70;44.10;;;;;;5054455;28;20033;-74
2021/06/14 10:51:24;;;;;;;2.65;1.23;;;19.80;43.20;;;;;;5053575;28;20104;-74
2021/06/14 10:53:51;;;;;;;2.63;1.42;;;19.50;44.10;;;;;;5048295;28;20124;-74
2021/06/14 10:56:23;;;;;;;1.05;0.98;;;19.00;45.30;;;;;;5050581;28;20056;-74
2021/06/14 10:58:57;;;;;;;3.70;1.45;;;19.00;46.50;;;;;;5053137;28;20021;-74
2021/06/14 11:01:49;;;;;;;2.65;1.38;;;19.00;47.30;;;;;;5053096;28;20025;-74
2021/06/14 11:04:27;;;;;;;;;;;19.10;46.80;;;;;;5051836;28;20459;-74
2021/06/14 11:06:55;;;;;;;3.30;1.23;;;19.60;46.60;;;;;;5053242;28;19915;-74
2021/06/14 11:09:21;;;;;;;3.40;1.58;;;20.00;45.90;;;;;;5054493;28;20466;-74
2021/06/14 11:11:55;;;;;;;2.17;1.23;;;20.20;45.00;;;;;;5053160;28;20021;-73
2021/06/14 11:14:41;;;;;;;3.38;1.63;;;19.80;44.10;;;;;;5054317;28;20021;-74
2021/06/14 11:17:26;;;;;;;2.03;1.50;;;19.90;44.20;;;;;;5034183;28;20083;-74
2021/06/14 11:20:03;;;;;;;3.05;1.33;;;20.20;43.90;;;;;;5056409;28;20363;-74
2021/06/14 11:22:40;;;;;;;2.03;1.70;;;20.60;44.00;;;;;;5054204;28;20024;-74
2021/06/14 11:25:33;;;;;;;1.67;1.40;;;20.50;44.20;;;;;;5053807;28;20036;-74
2021/06/14 11:28:01;;;;;;;;;;;20.10;45.10;;;;;;5053303;28;20478;-74
2021/06/14 11:30:32;;;;;;;3.80;1.38;;;19.60;44.80;;;;;;5053949;28;19904;-74
2021/06/14 11:32:58;;;;;;;2.03;1.50;;;19.60;44.10;;;;;;5052430;28;20033;-74
2021/06/14 11:35:27;;;;;;;1.40;1.20;;;20.20;44.10;;;;;;5053866;28;20029;-74
2021/06/14 11:37:53;;;;;;;2.05;1.55;;;20.60;43.60;;;;;;5053739;28;20103;-74
2021/06/14 11:40:34;;;;;;;1.20;1.10;;;20.70;42.60;;;;;;5053805;28;20099;-74
2021/06/14 11:43:11;;;;;;;3.25;1.50;;;20.50;42.40;;;;;;5053718;28;20025;-74
2021/06/14 11:45:41;;;;;;;2.05;1.27;;;20.10;43.00;;;;;;5047217;28;20026;-74
2021/06/14 11:48:30;;;;;;;2.33;1.60;;;20.20;42.90;;;;;;5052390;28;20032;-74
2021/06/14 11:51:07;;;;;;;2.90;1.63;;;20.50;42.00;;;;;;5053358;28;20467;-74
2021/06/14 11:53:54;;;;;;;1.75;1.60;;;20.70;41.80;;;;;;5053706;28;20112;-74
2021/06/14 11:56:22;;;;;;;3.53;1.60;;;20.80;42.20;;;;;;5053538;28;20112;-74
2021/06/14 11:58:50;;;;;;;3.67;1.70;;;20.70;41.90;;;;;;5051768;28;20483;-74
2021/06/14 12:01:18;;;;;;;1.88;1.38;;;20.40;42.50;;;;;;5053537;28;20033;-74
2021/06/14 12:03:43;;;;;;;2.40;1.42;;;20.20;43.80;;;;;;5051869;28;20064;-74
2021/06/14 12:06:09;;;;;;;1.65;1.50;;;20.30;43.50;;;;;;5053091;28;20382;-74
2021/06/14 12:08:35;;;;;;;5.47;2.42;;;20.60;44.00;;;;;;5053393;28;20056;-74
2021/06/14 12:11:07;;;;;;;5.30;2.03;;;20.90;42.90;;;;;;5053079;28;20098;-74
2021/06/14 12:13:32;;;;;;;2.25;1.40;;;21.20;42.30;;;;;;5053416;28;20021;-74
2021/06/14 12:15:58;;;;;;;3.20;1.38;;;21.30;41.40;;;;;;5052906;28;20143;-74
2021/06/14 12:18:26;;;;;;;1.85;1.75;;;21.10;41.10;;;;;;5053211;28;20092;-74
2021/06/14 12:20:59;;;;;;;4.53;1.60;;;20.70;42.10;;;;;;5052952;28;20060;-74
2021/06/14 12:23:38;;;;;;;1.45;0.95;;;20.10;42.60;;;;;;5053214;28;20028;-74
2021/06/14 12:26:12;;;;;;;3.53;1.38;;;19.90;43.30;;;;;;5051751;28;20017;-74
2021/06/14 12:28:39;;;;;;;3.25;1.42;;;19.70;42.90;;;;;;5052802;28;20099;-74
2021/06/14 12:31:08;;;;;;;1.33;1.17;;;20.10;41.50;;;;;;5052919;28;20036;-74
2021/06/14 12:33:36;;;;;;;2.58;1.40;;;20.70;41.10;;;;;;5051518;28;20082;-74
2021/06/14 12:36:04;;;;;;;3.67;2.30;;;21.30;42.30;;;;;;5051479;28;20033;-74
2021/06/14 12:38:30;;;;;;;3.55;1.67;;;21.60;41.60;;;;;;5052626;28;20049;-74
2021/06/14 12:40:57;;;;;;;3.53;1.33;;;21.10;41.40;;;;;;5051346;28;20112;-74
2021/06/14 12:43:23;;;;;;;5.93;2.13;;;20.50;42.30;;;;;;5030884;28;20479;-74
2021/06/14 12:45:49;;;;;;;4.35;1.92;;;20.10;43.50;;;;;;5061413;28;20040;-74
2021/06/14 12:48:17;;;;;;;3.60;1.80;;;19.80;44.90;;;;;;5049138;28;20017;-74
2021/06/14 12:50:52;;;;;;;3.42;1.63;;;19.90;45.20;;;;;;5049417;28;20094;-74
2021/06/14 12:53:19;;;;;;;1.60;1.42;;;20.40;44.20;;;;;;5050421;28;20028;-74
2021/06/14 12:55:48;;;;;;;3.17;1.88;;;20.70;42.80;;;;;;5039489;28;20061;-74